createdAt,value
2022-12-01T00:01:15.440Z,27.95
2022-12-01T00:03:43.003Z,24.20
2022-12-01T00:06:20.889Z,25.00
2022-12-01T00:09:09.643Z,21.63
2022-12-01T00:11:38.502Z,23.20
2022-12-01T00:14:06.115Z,23.65
2022-12-01T00:16:34.100Z,23.17
2022-12-01T00:19:01.462Z,23.10
2022-12-01T00:21:28.710Z,23.75
2022-12-01T00:23:57.638Z,21.70
2022-12-01T00:26:26.380Z,23.80
2022-12-01T00:28:55.968Z,24.42
2022-12-01T00:31:23.244Z,23.03
2022-12-01T00:33:50.464Z,20.95
2022-12-01T00:36:17.652Z,26.98
2022-12-01T00:38:44.978Z,24.45
2022-12-01T00:41:12.318Z,24.70
2022-12-01T00:43:39.878Z,24.37
2022-12-01T00:46:07.221Z,19.17
2022-12-01T00:48:34.410Z,24.15
2022-12-01T00:51:01.571Z,25.23
2022-12-01T00:53:29.001Z,22.40
2022-12-01T00:55:56.436Z,24.10
2022-12-01T00:58:24.617Z,21.95
2022-12-01T01:01:01.475Z,27.42
2022-12-01T01:03:30.623Z,24.55
2022-12-01T01:06:04.766Z,29.90
2022-12-01T01:08:32.526Z,26.40
2022-12-01T01:11:01.578Z,23.35
2022-12-01T01:13:29.353Z,23.00
2022-12-01T01:16:01.328Z,24.77
2022-12-01T01:18:28.852Z,26.52
2022-12-01T01:21:04.802Z,23.60
2022-12-01T01:23:32.112Z,30.73
2022-12-01T01:26:08.889Z,27.45
2022-12-01T01:28:36.475Z,27.23
2022-12-01T01:31:08.114Z,29.48
2022-12-01T01:33:35.615Z,30.17
2022-12-01T01:36:03.920Z,26.25
2022-12-01T01:38:32.226Z,26.67
2022-12-01T01:40:59.523Z,26.02
2022-12-01T01:43:49.362Z,27.92
2022-12-01T01:46:19.618Z,34.50
2022-12-01T01:48:51.350Z,31.00
2022-12-01T01:51:23.136Z,40.67
2022-12-01T01:53:54.250Z,41.97
2022-12-01T01:56:21.472Z,41.17
2022-12-01T01:58:49.179Z,46.37
2022-12-01T02:01:16.382Z,42.83
2022-12-01T02:03:45.529Z,47.88
2022-12-01T02:06:13.688Z,46.30
2022-12-01T02:08:40.837Z,43.67
2022-12-01T02:11:28.046Z,48.27
2022-12-01T02:14:28.600Z,44.50
2022-12-01T02:17:11.216Z,43.92
2022-12-01T02:20:14.165Z,54.85
2022-12-01T02:22:56.499Z,45.92
2022-12-01T02:25:48.842Z,45.87
2022-12-01T02:28:15.931Z,46.55
2022-12-01T02:30:49.554Z,51.50
2022-12-01T02:33:25.672Z,47.80
2022-12-01T02:36:16.487Z,45.75
2022-12-01T02:38:54.792Z,52.13
2022-12-01T02:41:29.646Z,47.13
2022-12-01T02:44:08.373Z,46.55
2022-12-01T02:46:57.711Z,47.53
2022-12-01T02:49:31.532Z,45.97
2022-12-01T02:51:59.146Z,53.53
2022-12-01T02:54:29.950Z,51.67
2022-12-01T02:56:57.032Z,61.15
2022-12-01T02:59:24.145Z,47.17
2022-12-01T03:02:11.843Z,50.25
2022-12-01T03:05:04.827Z,43.13
2022-12-01T03:07:55.234Z,46.45
2022-12-01T03:10:44.055Z,49.10
2022-12-01T03:13:38.806Z,43.13
2022-12-01T03:16:21.122Z,46.78
2022-12-01T03:18:56.576Z,45.50
2022-12-01T03:21:27.099Z,46.08
2022-12-01T03:24:12.074Z,40.75
2022-12-01T03:26:41.278Z,41.83
2022-12-01T03:29:11.329Z,38.20
2022-12-01T03:31:43.795Z,41.90
2022-12-01T03:34:18.328Z,39.03
2022-12-01T03:36:52.685Z,35.92
2022-12-01T03:39:26.596Z,34.80
2022-12-01T03:41:58.898Z,41.88
2022-12-01T03:44:31.395Z,40.70
2022-12-01T03:47:06.871Z,40.92
2022-12-01T03:49:34.299Z,39.47
2022-12-01T03:52:14.269Z,38.80
2022-12-01T03:55:02.484Z,34.60
2022-12-01T03:57:32.213Z,42.30
2022-12-01T03:59:59.456Z,38.15
2022-12-01T04:02:28.176Z,44.45
2022-12-01T04:04:55.384Z,37.10
2022-12-01T04:07:23.472Z,35.08
2022-12-01T04:09:51.148Z,40.70
2022-12-01T04:12:30.570Z,37.75
2022-12-01T04:14:58.450Z,34.25
2022-12-01T04:17:26.282Z,44.60
2022-12-01T04:19:53.881Z,36.55
2022-12-01T04:22:21.481Z,40.87
2022-12-01T04:24:48.913Z,37.28
2022-12-01T04:27:16.088Z,38.63
2022-12-01T04:29:43.379Z,37.20
2022-12-01T04:32:10.592Z,35.33
2022-12-01T04:34:37.657Z,37.57
2022-12-01T04:37:05.953Z,37.60
2022-12-01T04:39:34.294Z,39.15
2022-12-01T04:42:01.800Z,40.03
2022-12-01T04:44:34.312Z,34.85
2022-12-01T04:47:03.279Z,30.77
2022-12-01T04:49:30.787Z,34.80
2022-12-01T04:51:58.274Z,31.10
2022-12-01T04:54:25.652Z,34.53
2022-12-01T04:56:52.854Z,32.17
2022-12-01T04:59:19.952Z,33.77
2022-12-01T05:01:48.245Z,32.42
2022-12-01T05:04:15.643Z,34.65
2022-12-01T05:06:43.348Z,36.78
2022-12-01T05:09:17.116Z,35.13
2022-12-01T05:11:45.081Z,32.60
2022-12-01T05:14:12.266Z,36.10
2022-12-01T05:16:39.458Z,40.28
2022-12-01T05:19:25.478Z,37.85
2022-12-01T05:21:52.802Z,37.05
2022-12-01T05:24:20.840Z,35.37
2022-12-01T05:26:48.187Z,35.47
2022-12-01T05:29:15.377Z,38.72
2022-12-01T05:31:42.630Z,37.28
2022-12-01T05:34:09.899Z,35.15
2022-12-01T05:36:36.964Z,39.07
2022-12-01T05:39:05.029Z,37.95
2022-12-01T05:41:32.313Z,37.88
2022-12-01T05:43:59.414Z,32.88
2022-12-01T05:46:26.706Z,39.13
2022-12-01T05:48:53.974Z,35.47
2022-12-01T05:51:21.263Z,29.13
2022-12-01T05:53:48.396Z,32.50
2022-12-01T05:56:15.560Z,36.35
2022-12-01T05:58:42.724Z,35.15
2022-12-01T06:01:09.948Z,36.57
2022-12-01T06:03:37.115Z,33.88
2022-12-01T06:06:04.434Z,34.25
2022-12-01T06:08:31.584Z,32.80
2022-12-01T06:10:58.691Z,31.80
2022-12-01T06:13:26.102Z,35.13
2022-12-01T06:15:57.658Z,34.70
2022-12-01T06:18:26.197Z,34.47
2022-12-01T06:20:53.388Z,36.00
2022-12-01T06:23:20.701Z,34.33
2022-12-01T06:25:47.990Z,37.47
2022-12-01T06:28:15.336Z,32.83
2022-12-01T06:30:42.647Z,32.05
2022-12-01T06:33:09.712Z,31.60
2022-12-01T06:35:37.697Z,32.97
2022-12-01T06:38:05.086Z,28.07
2022-12-01T06:40:32.537Z,33.00
2022-12-01T06:43:02.158Z,31.73
2022-12-01T06:45:30.828Z,33.40
2022-12-01T06:47:58.164Z,30.67
2022-12-01T06:50:25.778Z,33.03
2022-12-01T06:52:53.132Z,30.52
2022-12-01T06:55:20.221Z,30.38
2022-12-01T06:57:47.587Z,32.83
2022-12-01T07:00:15.445Z,31.70
2022-12-01T07:02:42.813Z,36.80
2022-12-01T07:05:10.208Z,33.03
2022-12-01T07:07:39.179Z,34.33
2022-12-01T07:10:07.643Z,33.75
2022-12-01T07:12:34.957Z,30.05
2022-12-01T07:15:02.466Z,39.97
2022-12-01T07:17:29.845Z,36.75
2022-12-01T07:19:57.271Z,34.78
2022-12-01T07:22:28.117Z,33.70
2022-12-01T07:24:58.225Z,34.03
2022-12-01T07:27:25.388Z,37.07
2022-12-01T07:29:52.719Z,35.80
2022-12-01T07:32:19.991Z,37.03
2022-12-01T07:34:47.371Z,41.70
2022-12-01T07:37:14.506Z,37.67
2022-12-01T07:39:41.643Z,31.80
2022-12-01T07:42:08.829Z,32.65
2022-12-01T07:44:36.037Z,33.08
2022-12-01T07:47:03.293Z,34.60
2022-12-01T07:49:30.669Z,28.08
2022-12-01T07:51:57.868Z,37.93
2022-12-01T07:54:25.776Z,34.78
2022-12-01T07:56:53.139Z,36.88
2022-12-01T07:59:20.505Z,33.65
2022-12-01T08:01:47.810Z,35.55
2022-12-01T08:04:15.103Z,31.73
2022-12-01T08:06:42.286Z,31.60
2022-12-01T08:09:09.491Z,32.55
2022-12-01T08:11:36.648Z,36.08
2022-12-01T08:14:03.824Z,35.75
2022-12-01T08:16:31.487Z,34.03
2022-12-01T08:18:58.742Z,31.85
2022-12-01T08:21:25.999Z,38.17
2022-12-01T08:23:54.947Z,31.77
2022-12-01T08:26:23.252Z,30.73
2022-12-01T08:28:50.381Z,31.97
2022-12-01T08:31:20.513Z,29.50
2022-12-01T08:33:48.493Z,33.90
2022-12-01T08:36:15.811Z,32.30
2022-12-01T08:38:44.955Z,33.15
2022-12-01T08:41:12.991Z,30.10
2022-12-01T08:43:57.071Z,28.42
2022-12-01T08:46:27.180Z,33.63
2022-12-01T08:48:57.259Z,27.80
2022-12-01T08:51:25.199Z,28.77
2022-12-01T08:53:52.338Z,28.93
2022-12-01T08:56:28.864Z,32.00
2022-12-01T08:58:56.321Z,28.25
2022-12-01T09:01:23.531Z,29.88
2022-12-01T09:04:05.224Z,30.27
2022-12-01T09:06:35.405Z,30.90
2022-12-01T09:09:02.555Z,31.52
2022-12-01T09:11:29.712Z,34.40
2022-12-01T09:13:59.068Z,31.10
2022-12-01T09:16:26.289Z,29.70
2022-12-01T09:18:53.464Z,27.53
2022-12-01T09:21:24.033Z,27.65
2022-12-01T09:23:51.409Z,28.67
2022-12-01T09:26:19.657Z,27.90
2022-12-01T09:28:48.052Z,25.40
2022-12-01T09:31:16.562Z,23.67
2022-12-01T09:33:44.174Z,29.02
2022-12-01T09:36:11.391Z,28.02
2022-12-01T09:38:38.993Z,27.95
2022-12-01T09:41:09.368Z,30.27
2022-12-01T09:43:42.099Z,23.07
2022-12-01T09:46:17.170Z,24.90
2022-12-01T09:48:47.180Z,27.00
2022-12-01T09:51:14.998Z,26.55
2022-12-01T09:53:43.094Z,27.42
2022-12-01T09:56:22.490Z,26.53
2022-12-01T09:58:52.836Z,27.42
2022-12-01T10:01:30.700Z,24.40
2022-12-01T10:03:59.925Z,25.63
2022-12-01T10:06:38.031Z,29.52
2022-12-01T10:09:07.916Z,27.87
2022-12-01T10:11:36.868Z,29.75
2022-12-01T10:14:04.629Z,34.85
2022-12-01T10:16:45.899Z,34.95
2022-12-01T10:19:17.992Z,37.33
2022-12-01T10:22:01.226Z,26.40
2022-12-01T10:24:43.959Z,33.63
2022-12-01T10:27:35.369Z,34.60
2022-12-01T10:30:09.968Z,32.08
2022-12-01T10:32:53.945Z,33.53
2022-12-01T10:35:23.922Z,35.03
2022-12-01T10:37:56.608Z,28.38
2022-12-01T10:40:24.411Z,31.67
2022-12-01T10:42:52.035Z,31.77
2022-12-01T10:45:31.985Z,32.85
2022-12-01T10:48:20.179Z,31.73
2022-12-01T10:50:52.180Z,30.23
2022-12-01T10:53:22.147Z,32.70
2022-12-01T10:56:13.556Z,30.75
2022-12-01T10:58:51.388Z,32.78
2022-12-01T11:01:31.951Z,30.27
2022-12-01T11:04:06.420Z,32.33
2022-12-01T11:06:34.636Z,32.33
2022-12-01T11:09:04.800Z,36.72
2022-12-01T11:11:31.806Z,29.77
2022-12-01T11:14:02.006Z,34.37
2022-12-01T11:16:43.743Z,31.50
2022-12-01T11:19:32.485Z,33.50
2022-12-01T11:22:19.670Z,32.00
2022-12-01T11:25:05.815Z,33.60
2022-12-01T11:27:36.546Z,33.77
2022-12-01T11:30:20.128Z,24.65
2022-12-01T11:32:53.175Z,31.05
2022-12-01T11:35:22.171Z,26.85
2022-12-01T11:38:27.287Z,26.08
2022-12-01T11:40:47.269Z,38.53
2022-12-01T11:43:35.205Z,43.63
2022-12-01T11:46:05.001Z,39.00
2022-12-01T11:48:36.611Z,46.53
2022-12-01T11:51:18.860Z,39.78
2022-12-01T11:53:46.662Z,35.03
2022-12-01T11:56:29.105Z,36.67
2022-12-01T11:59:00.622Z,38.53
2022-12-01T12:01:44.195Z,37.08
2022-12-01T12:04:52.978Z,37.13
2022-12-01T12:07:29.582Z,33.33
2022-12-01T12:10:11.654Z,38.97
2022-12-01T12:13:09.992Z,38.88
2022-12-01T12:15:56.758Z,34.08
2022-12-01T12:18:32.517Z,34.92
2022-12-01T12:21:25.725Z,39.93
2022-12-01T12:23:52.912Z,39.08
2022-12-01T12:26:22.749Z,41.97
2022-12-01T12:29:15.167Z,43.53
2022-12-01T12:32:00.691Z,41.03
2022-12-01T12:34:37.463Z,42.83
2022-12-01T12:37:20.474Z,39.97
2022-12-01T12:40:22.718Z,40.67
2022-12-01T12:43:14.555Z,38.38
2022-12-01T12:46:00.720Z,41.60
2022-12-01T12:49:04.003Z,39.63
2022-12-01T12:51:37.747Z,39.58
2022-12-01T12:54:22.055Z,50.97
2022-12-01T12:56:51.790Z,37.30
2022-12-01T12:59:27.143Z,49.30
2022-12-01T13:02:16.244Z,47.83
2022-12-01T13:04:56.572Z,47.88
2022-12-01T13:07:37.319Z,43.10
2022-12-01T13:10:15.008Z,46.22
2022-12-01T13:12:49.655Z,46.90
2022-12-01T13:15:19.873Z,44.47
2022-12-01T13:17:54.489Z,55.92
2022-12-01T13:20:27.677Z,49.72
2022-12-01T13:22:56.372Z,51.97
2022-12-01T13:25:28.371Z,48.58
2022-12-01T13:27:56.198Z,43.90
2022-12-01T13:30:25.461Z,47.80
2022-12-01T13:33:04.217Z,54.08
2022-12-01T13:35:36.593Z,51.85
2022-12-01T13:38:29.966Z,51.55
2022-12-01T13:41:11.836Z,52.70
2022-12-01T13:43:49.475Z,47.97
2022-12-01T13:46:43.712Z,49.60
2022-12-01T13:49:43.466Z,54.03
2022-12-01T13:52:22.864Z,59.20
2022-12-01T13:55:08.309Z,54.03
2022-12-01T13:57:37.885Z,53.80
2022-12-01T14:00:20.017Z,54.88
2022-12-01T14:03:13.229Z,54.10
2022-12-01T14:05:40.373Z,55.22
2022-12-01T14:08:22.633Z,56.27
2022-12-01T14:11:18.579Z,67.40
2022-12-01T14:13:55.166Z,51.17
2022-12-01T14:16:22.984Z,54.58
2022-12-01T14:18:57.727Z,48.88
2022-12-01T14:21:42.587Z,45.90
2022-12-01T14:24:32.199Z,48.58
2022-12-01T14:26:59.528Z,57.90
2022-12-01T14:29:42.456Z,51.45
2022-12-01T14:32:09.525Z,54.28
2022-12-01T14:34:38.134Z,53.87
2022-12-01T14:37:07.151Z,63.30
2022-12-01T14:39:36.530Z,53.95
2022-12-01T14:42:41.165Z,57.67
2022-12-01T14:45:11.922Z,48.85
2022-12-01T14:47:49.610Z,52.57
2022-12-01T14:50:24.896Z,59.70
2022-12-01T14:53:05.326Z,54.88
2022-12-01T14:55:41.777Z,55.13
2022-12-01T14:58:16.508Z,58.17
2022-12-01T15:01:06.580Z,57.07
2022-12-01T15:03:42.862Z,61.85
2022-12-01T15:06:10.494Z,57.45
2022-12-01T15:08:43.466Z,62.80
2022-12-01T15:11:22.705Z,74.80
2022-12-01T15:13:55.193Z,59.50
2022-12-01T15:16:24.890Z,63.85
2022-12-01T15:18:52.355Z,56.80
2022-12-01T15:21:28.388Z,54.00
2022-12-01T15:24:00.979Z,50.50
2022-12-01T15:26:31.106Z,57.63
2022-12-01T15:29:19.277Z,61.38
2022-12-01T15:31:53.418Z,58.85
2022-12-01T15:34:41.745Z,56.60
2022-12-01T15:37:19.922Z,58.92
2022-12-01T15:40:00.291Z,55.60
2022-12-01T15:42:39.557Z,57.50
2022-12-01T15:45:17.703Z,57.03
2022-12-01T15:47:48.782Z,57.38
2022-12-01T15:50:33.358Z,61.42
2022-12-01T15:53:03.283Z,51.80
2022-12-01T15:55:33.276Z,56.33
2022-12-01T15:58:01.459Z,61.42
2022-12-01T16:00:28.600Z,49.45
2022-12-01T16:02:57.597Z,47.33
2022-12-01T16:05:30.707Z,56.83
2022-12-01T16:08:13.063Z,59.15
2022-12-01T16:10:40.522Z,53.38
2022-12-01T16:13:41.884Z,54.20
2022-12-01T16:16:37.433Z,56.67
2022-12-01T16:19:07.495Z,59.43
2022-12-01T16:21:52.533Z,58.90
2022-12-01T16:24:30.572Z,59.75
2022-12-01T16:27:03.655Z,68.75
2022-12-01T16:29:34.573Z,65.85
2022-12-01T16:32:20.812Z,57.47
2022-12-01T16:34:50.243Z,62.83
2022-12-01T16:37:17.651Z,59.58
2022-12-01T16:39:45.024Z,57.22
2022-12-01T16:42:16.558Z,66.80
2022-12-01T16:44:45.656Z,62.23
2022-12-01T16:47:18.388Z,57.50
2022-12-01T16:49:45.598Z,66.18
2022-12-01T16:55:00.057Z,55.17
2022-12-01T16:57:27.186Z,58.53
2022-12-01T16:59:54.289Z,61.28
2022-12-01T17:02:21.575Z,59.25
2022-12-01T17:04:49.204Z,63.13
2022-12-01T17:07:16.686Z,59.00
2022-12-01T17:09:43.899Z,57.37
2022-12-01T17:12:11.055Z,59.10
2022-12-01T17:14:38.316Z,64.05
2022-12-01T17:17:05.518Z,58.50
2022-12-01T17:19:32.613Z,58.15
2022-12-01T17:21:59.987Z,61.13
2022-12-01T17:24:27.129Z,57.25
2022-12-01T17:26:54.260Z,61.38
2022-12-01T17:29:21.381Z,57.65
2022-12-01T17:31:48.517Z,57.97
2022-12-01T17:34:15.676Z,57.93
2022-12-01T17:36:42.848Z,61.35
2022-12-01T17:39:09.960Z,58.05
2022-12-01T17:41:37.219Z,64.97
2022-12-01T17:44:04.972Z,59.08
2022-12-01T17:46:32.263Z,59.53
2022-12-01T17:48:59.442Z,56.50
2022-12-01T17:51:26.577Z,55.97
2022-12-01T17:53:53.893Z,56.90
2022-12-01T17:56:21.133Z,66.47
2022-12-01T17:58:50.476Z,59.37
2022-12-01T18:01:19.578Z,54.72
2022-12-01T18:03:47.543Z,56.80
2022-12-01T18:06:16.276Z,58.17
2022-12-01T18:08:43.435Z,64.65
2022-12-01T18:11:13.942Z,50.50
2022-12-01T18:13:47.153Z,59.08
2022-12-01T18:16:19.682Z,54.33
2022-12-01T18:18:47.136Z,60.33
2022-12-01T18:21:15.907Z,54.85
2022-12-01T18:23:43.283Z,59.83
2022-12-01T18:26:15.781Z,56.33
2022-12-01T18:28:43.967Z,53.92
2022-12-01T18:31:13.686Z,54.00
2022-12-01T18:33:42.766Z,53.50
2022-12-01T18:36:13.212Z,63.17
2022-12-01T18:38:40.677Z,54.85
2022-12-01T18:41:08.628Z,59.25
2022-12-01T18:43:36.235Z,56.33
2022-12-01T18:46:04.846Z,60.90
2022-12-01T18:48:32.867Z,65.03
2022-12-01T18:51:04.091Z,56.95
2022-12-01T18:53:31.623Z,57.08
2022-12-01T18:56:06.348Z,57.65
2022-12-01T18:58:33.840Z,58.95
2022-12-01T19:01:01.460Z,58.30
2022-12-01T19:03:30.205Z,51.38
2022-12-01T19:05:57.919Z,58.85
2022-12-01T19:08:25.078Z,69.32
2022-12-01T19:11:02.464Z,52.75
2022-12-01T19:13:30.727Z,57.83
2022-12-01T19:15:58.099Z,57.45
2022-12-01T19:18:25.209Z,60.75
2022-12-01T19:20:52.436Z,59.75
2022-12-01T19:23:19.671Z,66.18
2022-12-01T19:25:46.798Z,57.90
2022-12-01T19:28:13.898Z,61.88
2022-12-01T19:30:45.347Z,49.53
2022-12-01T19:33:15.380Z,52.45
2022-12-01T19:35:42.596Z,60.92
2022-12-01T19:38:09.686Z,60.23
2022-12-01T19:40:38.496Z,47.25
2022-12-01T19:43:05.620Z,49.15
2022-12-01T19:45:33.692Z,49.72
2022-12-01T19:48:00.961Z,51.75
2022-12-01T19:50:28.081Z,55.03
2022-12-01T19:52:55.179Z,47.30
2022-12-01T19:55:22.271Z,53.17
2022-12-01T19:57:52.329Z,52.53
2022-12-01T20:00:21.988Z,50.10
2022-12-01T20:02:49.761Z,45.27
2022-12-01T20:05:17.052Z,51.60
2022-12-01T20:07:44.268Z,45.28
2022-12-01T20:10:11.550Z,56.78
2022-12-01T20:12:38.885Z,54.03
2022-12-01T20:15:08.676Z,54.77
2022-12-01T20:17:36.754Z,52.45
2022-12-01T20:20:05.072Z,50.45
2022-12-01T20:22:36.030Z,55.10
2022-12-01T20:25:04.440Z,51.45
2022-12-01T20:27:31.925Z,51.13
2022-12-01T20:29:59.197Z,47.83
2022-12-01T20:32:26.363Z,49.17
2022-12-01T20:34:53.675Z,50.15
2022-12-01T20:37:20.934Z,51.70
2022-12-01T20:39:48.076Z,48.67
2022-12-01T20:42:15.215Z,53.72
2022-12-01T20:44:42.369Z,45.30
2022-12-01T20:47:09.492Z,54.45
2022-12-01T20:49:36.701Z,53.28
2022-12-01T20:52:03.968Z,55.43
2022-12-01T20:54:31.487Z,53.20
2022-12-01T20:56:58.990Z,47.53
2022-12-01T20:59:26.641Z,50.92
2022-12-01T21:01:54.436Z,51.03
2022-12-01T21:04:21.673Z,50.63
2022-12-01T21:06:50.231Z,48.72
2022-12-01T21:09:18.039Z,61.63
2022-12-01T21:12:05.750Z,49.90
2022-12-01T21:14:41.710Z,63.00
2022-12-01T21:17:29.268Z,55.17
2022-12-01T21:20:05.256Z,53.03
2022-12-01T21:22:32.494Z,57.25
2022-12-01T21:25:10.606Z,57.72
2022-12-01T21:27:37.998Z,52.85
2022-12-01T21:30:15.981Z,49.37
2022-12-01T21:32:44.203Z,53.55
2022-12-01T21:35:20.429Z,54.75
2022-12-01T21:37:48.690Z,51.75
2022-12-01T21:40:20.395Z,55.85
2022-12-01T21:42:47.811Z,54.10
2022-12-01T21:45:32.044Z,53.72
2022-12-01T21:48:12.408Z,57.45
2022-12-01T21:50:39.513Z,53.67
2022-12-01T21:53:19.335Z,61.20
2022-12-01T21:55:47.716Z,58.67
2022-12-01T21:58:24.030Z,52.50
2022-12-01T22:00:55.984Z,48.45
2022-12-01T22:03:26.276Z,46.92
2022-12-01T22:06:32.969Z,55.30
2022-12-01T22:09:02.121Z,52.23
2022-12-01T22:11:30.570Z,49.72
2022-12-01T22:14:15.519Z,48.78
2022-12-01T22:16:56.985Z,53.33
2022-12-01T22:19:31.324Z,46.97
2022-12-01T22:22:10.550Z,49.33
2022-12-01T22:24:39.908Z,46.88
2022-12-01T22:27:27.230Z,45.30
2022-12-01T22:29:58.419Z,45.38
2022-12-01T22:32:32.930Z,49.38
2022-12-01T22:35:28.991Z,48.47
2022-12-01T22:38:11.301Z,50.03
2022-12-01T22:40:53.672Z,47.58
2022-12-01T22:43:26.945Z,46.72
2022-12-01T22:46:00.272Z,46.65
2022-12-01T22:48:27.325Z,46.80
2022-12-01T22:50:54.876Z,57.25
2022-12-01T22:53:28.394Z,46.67
2022-12-01T22:55:57.074Z,51.83
2022-12-01T22:58:28.496Z,50.03
2022-12-01T23:00:57.788Z,48.50
2022-12-01T23:03:26.227Z,50.83
2022-12-01T23:05:56.525Z,51.38
2022-12-01T23:08:24.188Z,52.92
2022-12-01T23:10:51.557Z,54.22
2022-12-01T23:13:23.674Z,50.13
2022-12-01T23:15:53.645Z,53.53
2022-12-01T23:18:22.486Z,58.28
2022-12-01T23:20:59.969Z,52.13
2022-12-01T23:23:40.201Z,50.78
2022-12-01T23:26:08.345Z,56.37
2022-12-01T23:28:37.075Z,50.28
2022-12-01T23:31:04.245Z,48.03
2022-12-01T23:33:32.815Z,54.83
2022-12-01T23:36:12.286Z,50.22
2022-12-01T23:38:42.237Z,52.77
2022-12-01T23:41:33.026Z,61.83
2022-12-01T23:44:04.054Z,61.47
2022-12-01T23:46:32.500Z,56.30
2022-12-01T23:49:02.049Z,56.78
2022-12-01T23:51:40.451Z,48.87
2022-12-01T23:54:14.565Z,58.28
2022-12-01T23:56:41.745Z,58.17
2022-12-01T23:59:13.389Z,63.58
